• Join FlightAware (Why Join?)
  • Login
  • US Flag 
04:59AM EDT


 

Airport Tracker/Info


-or-


 

Live Flight TrackerFlight Track Log ✈ CPT7563 ✈ 24-May-2013 ✈ KMOT - KGFK

Flight Track Log - Related Links

Times and Time Zones

All times are in EDT time to prevent confusion due to time zone crossing. See the CPT7563 flight status page for this flight to view local times or setup timezone preferences in your user account.

Time Position Orientation Groundspeed Altitude Reporting Facility
EDT Latitude Longitude Course Direction KTS MPH feet Rate Location/Type
08:00PM 48.2323 -100.8060 98° East  Level FlightAware Approximate
08:01PM 48.2262 -100.7406 98° East  Level FlightAware Approximate
08:02PM 48.2200 -100.6751 98° East  Level FlightAware Approximate
08:02PM 48.2356 -100.8614 93° East 168 193 9,000  Level Minneapolis Center
08:03PM 48.2138 -100.6097 98° East  Level FlightAware Approximate
08:03PM 48.2303 -100.7836 96° East 171 197 9,000  Level Minneapolis Center
08:04PM 48.2075 -100.5443 98° East  Level FlightAware Approximate
08:04PM 48.2286 -100.7250 92° East 171 197 9,000  Level Minneapolis Center
08:05PM 48.2012 -100.4789 98° East  Level FlightAware Approximate
08:06PM 48.1980 -100.4130 93° East  Level FlightAware Approximate
08:06PM 48.2181 -100.5336 95° East 170 196 8,900  Level Minneapolis Center
08:07PM 48.1956 -100.3471 93° East  Level FlightAware Approximate
08:07PM 48.2158 -100.4617 93° East 171 197 8,900  Level Minneapolis Center
08:08PM 48.2125 -100.3894 94° East 173 199 8,900  Level Minneapolis Center
08:09PM 48.2081 -100.3194 95° East 172 198 8,900  Level Minneapolis Center
08:10PM 48.2039 -100.2503 95° East 170 196 8,900  Level Minneapolis Center
08:11PM 48.1989 -100.1672 95° East 168 193 8,900  Level Minneapolis Center
08:12PM 48.1947 -100.0989 95° East 167 192 8,900  Level Minneapolis Center
08:13PM 48.1897 -100.0319 96° East 165 190 8,900  Level Minneapolis Center
08:14PM 48.1853 -99.9633 96° East 165 190 8,900  Level Minneapolis Center
08:15PM 48.1817 -99.8936 94° East 166 191 8,900  Level Minneapolis Center
08:16PM 48.1769 -99.8244 96° East 167 192 8,900  Level Minneapolis Center
08:17PM 48.1722 -99.7550 96° East 167 192 8,900  Level Minneapolis Center
08:18PM 48.1683 -99.6722 94° East 167 192 9,000 120 Climbing Minneapolis Center
08:19PM 48.1631 -99.6025 96° East 168 193 9,200 420 Climbing Minneapolis Center
08:21PM 48.1611 -99.5397 93° East 161 185 9,900 600 Climbing Minneapolis Center
08:22PM 48.1575 -99.4814 95° East 152 175 10,500 480 Climbing Minneapolis Center
08:23PM 48.1525 -99.4336 99° East 148 170 11,000 240 Climbing Minneapolis Center
08:24PM 48.1469 -99.3561 96° East 151 174 11,000  Level Minneapolis Center
08:25PM 48.1408 -99.2872 98° East 158 182 11,000  Level Minneapolis Center
08:26PM 48.1356 -99.2022 95° East 166 191 11,000  Level Minneapolis Center
08:27PM 48.1331 -99.1469 94° East 167 192 11,000  Level Minneapolis Center
08:28PM 48.1264 -99.0636 97° East 167 192 11,100  Climbing Minneapolis Center
08:29PM 48.1217 -98.9939 96° East 169 194 11,100  Level Minneapolis Center
08:30PM 48.1167 -98.9242 96° East 169 194 11,100  Level Minneapolis Center
08:31PM 48.1111 -98.8531 97° East 170 196 11,100  Level Minneapolis Center
08:32PM 48.1042 -98.7828 98° East 171 197 11,100  Level Minneapolis Center
08:33PM 48.0958 -98.7006 99° East 169 194 11,100  Level Minneapolis Center
08:34PM 48.0894 -98.6319 98° East 169 194 11,100  Level Minneapolis Center
08:35PM 48.0833 -98.5625 97° East 168 193 11,100  Level Minneapolis Center
08:36PM 48.0758 -98.4794 98° East 168 193 11,100  Level Minneapolis Center
08:37PM 48.0697 -98.4114 98° East 167 192 11,200 60 Climbing Minneapolis Center
08:38PM 48.0678 -98.3803 95° East 168 193 11,200 -300 Level Minneapolis Center
08:38PM 48.0622 -98.3408 102° East 168 193 10,900 -600 Descending Minneapolis Center
08:39PM 48.0586 -98.3036 98° East 173 199 10,600 -720 Descending Minneapolis Center
08:39PM 48.0547 -98.2683 99° East 171 197 10,200 -660 Descending Minneapolis Center
08:40PM 48.0464 -98.1814 98° East 175 201 9,500 -780 Descending Minneapolis Center
08:41PM 48.0408 -98.1083 96° East 176 203 8,700 -720 Descending Minneapolis Center
08:43PM 48.0350 -98.0383 97° East 174 200 8,000 -720 Descending Minneapolis Center
08:44PM 48.0269 -97.9550 98° East 171 197 7,200 -720 Descending Minneapolis Center
08:45PM 48.0189 -97.8878 100° East 168 193 6,600 -660 Descending Minneapolis Center
08:46PM 48.0128 -97.8206 98° East 160 184 6,000 -660 Descending Minneapolis Center
08:46PM 48.0067 -97.7622 99° East 153 176 5,400 -720 Descending Minneapolis Center
08:47PM 48.0008 -97.7039 98° East 149 171 4,700 -660 Descending Minneapolis Center
08:48PM 47.9950 -97.6486 99° East 144 166 4,200 -660 Descending Minneapolis Center
08:49PM 47.9928 -97.6300 100° East 147 169 3,900 -720 Descending Minneapolis Center
08:49PM 47.9889 -97.5903 98° East 141 162 3,500 -600 Descending Minneapolis Center
08:50PM 47.9867 -97.5728 101° East 143 165 3,300 -540 Descending Minneapolis Center
08:50PM 47.9825 -97.5289 98° East 143 165 3,000 -420 Descending Minneapolis Center
08:51PM 47.9814 -97.5147 97° East 142 163 2,900  Descending Minneapolis Center
08:52PM 47.9783 -97.4703 96° East 140 161 3,000 60 Climbing Minneapolis Center
08:52PM 47.9756 -97.4581 109° East 141 162 3,000  Level Minneapolis Center
08:53PM 47.9722 -97.4122 96° East 138 159 3,000 -120 Level Minneapolis Center
08:53PM 47.9706 -97.4011 103° East 139 160 2,900 -540 Descending Minneapolis Center
08:54PM 47.9661 -97.3539 98° East 140 161 2,500 -600 Descending Minneapolis Center
08:54PM 47.9642 -97.3442 107° East 139 160 2,300 -720 Descending Minneapolis Center
08:55PM 47.9636 -97.2919 91° East 143 165 1,800 -780 Descending Minneapolis Center
08:55PM 47.9611 -97.2728 101° East 141 162 1,500 -120 Descending Minneapolis Center
08:56PM 47.9597 -97.2364 93° East 141 162 1,700 60 Climbing Minneapolis Center
08:56PM 47.9589 -97.2153 93° East 141 162 1,600 -480 Descending Minneapolis Center
08:57PM 47.9631 -97.1850 78° East 116 133 1,100 -540 Descending Minneapolis Center